CES501 ZBAD-ZSPD
Flight info
| Callsign | CES501 |
|---|---|
| Flight time | N/A |
| Altitude | 33100 |
| Route | ELKUR4K ELKUR W40 YQG W142 DALIM A593 DPX A470 DALNU W166 ZJ W167 SASAN SAS92A |
| Aircraft | A320/M-SDE3FGHIRWY/LB1 |
Departure
| Time | 2026-04-12 08:56 |
|---|---|
| Airport | Beijing Daxing International Airport (ZBAD) |
Arrival
| Time | N/A |
|---|---|
| Airport | Shanghai Pudong International Airport (ZSPD) |
| Time | Latitude | Longitude | Altitude | Speed | Heading |
|---|---|---|---|---|---|
| 2026-04-12 08:03 | 39.50782 | 116.40889 | 85 ft | 0 kts | 348° |
| 2026-04-12 08:35 | 39.50768 | 116.40893 | 88 ft | 4 kts | 347° |
| 2026-04-12 08:35 | 39.50741 | 116.40901 | 88 ft | 4 kts | 342° |
| 2026-04-12 08:35 | 39.50718 | 116.40915 | 86 ft | 4 kts | 311° |
| 2026-04-12 08:35 | 39.50712 | 116.40932 | 86 ft | 1 kts | 236° |
| 2026-04-12 08:41 | 39.50710 | 116.40929 | 85 ft | 0 kts | 236° |
| 2026-04-12 08:46 | 39.50705 | 116.40920 | 85 ft | 2 kts | 231° |
| 2026-04-12 08:47 | 39.50681 | 116.40899 | 87 ft | 6 kts | 209° |
| 2026-04-12 08:47 | 39.50651 | 116.40870 | 88 ft | 4 kts | 248° |
| 2026-04-12 08:47 | 39.50638 | 116.40828 | 88 ft | 6 kts | 236° |
| 2026-04-12 08:47 | 39.50602 | 116.40783 | 85 ft | 8 kts | 220° |
| 2026-04-12 08:48 | 39.50548 | 116.40733 | 87 ft | 11 kts | 214° |
| 2026-04-12 08:48 | 39.50498 | 116.40680 | 85 ft | 9 kts | 237° |
| 2026-04-12 08:48 | 39.50485 | 116.40605 | 87 ft | 8 kts | 262° |
| 2026-04-12 08:48 | 39.50478 | 116.40529 | 85 ft | 9 kts | 263° |
| 2026-04-12 08:49 | 39.50497 | 116.40447 | 87 ft | 11 kts | 315° |
| 2026-04-12 08:49 | 39.50563 | 116.40382 | 87 ft | 13 kts | 323° |
| 2026-04-12 08:49 | 39.50631 | 116.40315 | 85 ft | 10 kts | 322° |
| 2026-04-12 08:49 | 39.50644 | 116.40229 | 87 ft | 10 kts | 262° |
| 2026-04-12 08:50 | 39.50648 | 116.40153 | 88 ft | 9 kts | 304° |
| 2026-04-12 08:50 | 39.50709 | 116.40125 | 88 ft | 11 kts | 353° |
| 2026-04-12 08:50 | 39.50790 | 116.40113 | 88 ft | 13 kts | 353° |
| 2026-04-12 08:50 | 39.50886 | 116.40096 | 88 ft | 15 kts | 352° |
| 2026-04-12 08:51 | 39.50997 | 116.40078 | 88 ft | 17 kts | 354° |
| 2026-04-12 08:51 | 39.51109 | 116.40061 | 88 ft | 15 kts | 353° |
| 2026-04-12 08:51 | 39.51219 | 116.40044 | 89 ft | 17 kts | 353° |
| 2026-04-12 08:51 | 39.51342 | 116.40025 | 86 ft | 19 kts | 352° |
| 2026-04-12 08:52 | 39.51461 | 116.40005 | 88 ft | 17 kts | 352° |
| 2026-04-12 08:52 | 39.51588 | 116.39983 | 88 ft | 20 kts | 353° |
| 2026-04-12 08:52 | 39.51683 | 116.39967 | 87 ft | 11 kts | 353° |
| 2026-04-12 08:52 | 39.51760 | 116.39958 | 89 ft | 9 kts | 355° |
| 2026-04-12 08:53 | 39.51806 | 116.39906 | 87 ft | 10 kts | 279° |
| 2026-04-12 08:53 | 39.51799 | 116.39814 | 91 ft | 10 kts | 263° |
| 2026-04-12 08:53 | 39.51792 | 116.39735 | 94 ft | 7 kts | 262° |
| 2026-04-12 08:53 | 39.51788 | 116.39696 | 99 ft | 3 kts | 262° |
| 2026-04-12 08:54 | 39.51780 | 116.39642 | 98 ft | 10 kts | 249° |
| 2026-04-12 08:54 | 39.51714 | 116.39628 | 98 ft | 8 kts | 172° |
| 2026-04-12 08:54 | 39.51710 | 116.39628 | 98 ft | 0 kts | 172° |
| 2026-04-12 08:55 | 39.51708 | 116.39629 | 98 ft | 5 kts | 172° |
| 2026-04-12 08:55 | 39.51433 | 116.39673 | 97 ft | 76 kts | 173° |
| 2026-04-12 08:55 | 39.50707 | 116.39788 | 95 ft | 132 kts | 173° |
| 2026-04-12 08:55 | 39.49646 | 116.39961 | 147 ft | 170 kts | 171° |
| 2026-04-12 08:56 | 39.48470 | 116.40171 | 696 ft | 172 kts | 172° |
| 2026-04-12 08:56 | 39.47291 | 116.40344 | 1312 ft | 174 kts | 171° |
| 2026-04-12 08:56 | 39.46074 | 116.40509 | 1938 ft | 178 kts | 170° |
| 2026-04-12 08:56 | 39.44833 | 116.40683 | 2538 ft | 181 kts | 170° |
| 2026-04-12 08:57 | 39.43571 | 116.40865 | 3042 ft | 184 kts | 170° |
| 2026-04-12 08:57 | 39.42263 | 116.41058 | 3401 ft | 199 kts | 169° |
| 2026-04-12 08:57 | 39.40816 | 116.41290 | 3680 ft | 221 kts | 170° |
| 2026-04-12 08:57 | 39.39210 | 116.41546 | 3982 ft | 242 kts | 171° |
| 2026-04-12 08:58 | 39.37461 | 116.41914 | 4305 ft | 265 kts | 161° |
| 2026-04-12 08:58 | 39.35825 | 116.43110 | 4812 ft | 275 kts | 129° |
| 2026-04-12 08:58 | 39.34852 | 116.45214 | 5600 ft | 276 kts | 105° |
| 2026-04-12 08:58 | 39.34626 | 116.47635 | 5906 ft | 271 kts | 82° |
| 2026-04-12 08:59 | 39.34866 | 116.50045 | 5996 ft | 271 kts | 80° |
| 2026-04-12 08:59 | 39.35107 | 116.52458 | 6016 ft | 270 kts | 80° |
| 2026-04-12 08:59 | 39.35341 | 116.54863 | 6007 ft | 270 kts | 80° |
| 2026-04-12 08:59 | 39.35472 | 116.57284 | 6004 ft | 272 kts | 90° |
| 2026-04-12 09:00 | 39.35334 | 116.59729 | 6020 ft | 273 kts | 92° |
| 2026-04-12 09:00 | 39.35191 | 116.62167 | 6019 ft | 273 kts | 92° |
| 2026-04-12 09:00 | 39.35051 | 116.64615 | 6018 ft | 273 kts | 92° |
| 2026-04-12 09:00 | 39.34911 | 116.67065 | 6017 ft | 273 kts | 92° |
| 2026-04-12 09:01 | 39.34773 | 116.69477 | 6012 ft | 273 kts | 92° |
| 2026-04-12 09:01 | 39.34629 | 116.71921 | 6018 ft | 273 kts | 92° |
| 2026-04-12 09:01 | 39.34484 | 116.74365 | 6013 ft | 273 kts | 92° |
| 2026-04-12 09:01 | 39.34291 | 116.76807 | 6007 ft | 274 kts | 98° |
| 2026-04-12 09:02 | 39.33787 | 116.79180 | 6004 ft | 276 kts | 109° |
| 2026-04-12 09:02 | 39.32935 | 116.81413 | 6012 ft | 278 kts | 120° |
| 2026-04-12 09:02 | 39.31759 | 116.83403 | 6017 ft | 280 kts | 131° |
| 2026-04-12 09:02 | 39.30299 | 116.85074 | 6012 ft | 282 kts | 142° |
| 2026-04-12 09:03 | 39.28609 | 116.86367 | 6020 ft | 284 kts | 154° |
| 2026-04-12 09:03 | 39.26773 | 116.87317 | 6014 ft | 284 kts | 158° |
| 2026-04-12 09:03 | 39.24932 | 116.88238 | 6011 ft | 283 kts | 158° |
| 2026-04-12 09:03 | 39.23097 | 116.89162 | 6015 ft | 283 kts | 157° |
| 2026-04-12 09:04 | 39.21262 | 116.90091 | 6017 ft | 283 kts | 157° |
| 2026-04-12 09:04 | 39.19430 | 116.91018 | 6013 ft | 283 kts | 157° |
| 2026-04-12 09:04 | 39.17594 | 116.91943 | 6021 ft | 283 kts | 157° |
| 2026-04-12 09:04 | 39.15765 | 116.92863 | 6006 ft | 283 kts | 157° |
| 2026-04-12 09:05 | 39.13958 | 116.93772 | 6034 ft | 284 kts | 158° |
| 2026-04-12 09:05 | 39.12090 | 116.94714 | 6754 ft | 288 kts | 158° |
| 2026-04-12 09:05 | 39.10220 | 116.95658 | 7677 ft | 289 kts | 158° |
| 2026-04-12 09:05 | 39.08338 | 116.96607 | 8542 ft | 292 kts | 159° |
| 2026-04-12 09:06 | 39.06435 | 116.97565 | 9417 ft | 294 kts | 159° |
| 2026-04-12 09:06 | 39.04513 | 116.98531 | 10188 ft | 299 kts | 159° |
| 2026-04-12 09:06 | 39.02509 | 116.99534 | 10519 ft | 321 kts | 159° |
| 2026-04-12 09:06 | 39.00352 | 117.00614 | 10749 ft | 344 kts | 159° |
| 2026-04-12 09:07 | 38.98077 | 117.01756 | 11215 ft | 355 kts | 159° |
| 2026-04-12 09:07 | 38.95757 | 117.02923 | 11891 ft | 360 kts | 160° |
| 2026-04-12 09:07 | 38.93412 | 117.04104 | 12580 ft | 364 kts | 160° |
| 2026-04-12 09:07 | 38.91042 | 117.05293 | 13286 ft | 367 kts | 160° |
| 2026-04-12 09:08 | 38.88645 | 117.06470 | 13615 ft | 369 kts | 163° |
| 2026-04-12 09:08 | 38.86138 | 117.07039 | 13689 ft | 366 kts | 181° |
| 2026-04-12 09:08 | 38.83630 | 117.06607 | 13701 ft | 363 kts | 198° |
| 2026-04-12 09:08 | 38.81357 | 117.05240 | 13693 ft | 361 kts | 216° |
| 2026-04-12 09:09 | 38.79515 | 117.03085 | 13704 ft | 359 kts | 232° |
| 2026-04-12 09:09 | 38.78205 | 117.00378 | 13695 ft | 358 kts | 243° |
| 2026-04-12 09:09 | 38.77034 | 116.97566 | 13693 ft | 358 kts | 243° |
| 2026-04-12 09:09 | 38.75877 | 116.94792 | 13694 ft | 358 kts | 243° |
| 2026-04-12 09:10 | 38.74702 | 116.91979 | 13694 ft | 358 kts | 243° |
| 2026-04-12 09:10 | 38.73523 | 116.89168 | 13703 ft | 359 kts | 242° |
| 2026-04-12 09:10 | 38.72339 | 116.86352 | 13704 ft | 359 kts | 242° |
| 2026-04-12 09:10 | 38.71155 | 116.83537 | 13696 ft | 359 kts | 242° |
| 2026-04-12 09:11 | 38.69961 | 116.80701 | 14096 ft | 363 kts | 242° |
| 2026-04-12 09:11 | 38.68760 | 116.77858 | 14814 ft | 364 kts | 242° |
| 2026-04-12 09:11 | 38.67554 | 116.74999 | 15459 ft | 366 kts | 243° |
| 2026-04-12 09:11 | 38.66315 | 116.72144 | 16084 ft | 369 kts | 238° |
| 2026-04-12 09:12 | 38.64688 | 116.69595 | 16706 ft | 374 kts | 225° |
| 2026-04-12 09:12 | 38.62597 | 116.67586 | 17345 ft | 379 kts | 211° |
| 2026-04-12 09:12 | 38.60145 | 116.66273 | 17975 ft | 386 kts | 197° |
| 2026-04-12 09:12 | 38.57471 | 116.65728 | 18517 ft | 393 kts | 187° |
| 2026-04-12 09:13 | 38.54731 | 116.65426 | 19088 ft | 396 kts | 187° |
| 2026-04-12 09:13 | 38.51973 | 116.65122 | 19674 ft | 399 kts | 188° |
| 2026-04-12 09:13 | 38.49200 | 116.64808 | 20267 ft | 402 kts | 188° |
| 2026-04-12 09:13 | 38.46407 | 116.64483 | 20841 ft | 405 kts | 188° |
| 2026-04-12 09:14 | 38.43591 | 116.64155 | 21382 ft | 407 kts | 188° |
| 2026-04-12 09:14 | 38.40760 | 116.63828 | 21907 ft | 410 kts | 188° |
| 2026-04-12 09:14 | 38.37904 | 116.63502 | 22410 ft | 413 kts | 188° |
| 2026-04-12 09:14 | 38.35035 | 116.63177 | 22910 ft | 415 kts | 188° |
| 2026-04-12 09:15 | 38.32148 | 116.62849 | 23402 ft | 418 kts | 188° |
| 2026-04-12 09:15 | 38.29210 | 116.62871 | 23807 ft | 426 kts | 178° |
| 2026-04-12 09:15 | 38.26270 | 116.63542 | 24201 ft | 433 kts | 168° |
| 2026-04-12 09:15 | 38.23406 | 116.64612 | 24577 ft | 436 kts | 167° |
| 2026-04-12 09:16 | 38.20486 | 116.65706 | 24962 ft | 438 kts | 167° |
| 2026-04-12 09:16 | 38.17550 | 116.66800 | 25325 ft | 440 kts | 167° |
| 2026-04-12 09:16 | 38.14600 | 116.67895 | 25716 ft | 442 kts | 167° |
| 2026-04-12 09:16 | 38.11642 | 116.68992 | 26083 ft | 444 kts | 167° |
| 2026-04-12 09:17 | 38.08668 | 116.70099 | 26452 ft | 447 kts | 167° |
| 2026-04-12 09:17 | 38.05679 | 116.71230 | 26810 ft | 449 kts | 167° |
| 2026-04-12 09:17 | 38.02678 | 116.72378 | 27163 ft | 452 kts | 167° |
| 2026-04-12 09:17 | 37.99659 | 116.73536 | 27512 ft | 454 kts | 167° |
| 2026-04-12 09:18 | 37.96627 | 116.74695 | 27863 ft | 457 kts | 167° |
| 2026-04-12 09:18 | 37.93575 | 116.75860 | 28200 ft | 459 kts | 167° |
| 2026-04-12 09:18 | 37.90508 | 116.77029 | 28536 ft | 462 kts | 167° |
| 2026-04-12 09:18 | 37.87421 | 116.78203 | 28861 ft | 464 kts | 167° |
| 2026-04-12 09:19 | 37.84324 | 116.79377 | 29180 ft | 466 kts | 167° |
| 2026-04-12 09:19 | 37.81215 | 116.80555 | 29621 ft | 466 kts | 168° |
| 2026-04-12 09:19 | 37.78114 | 116.81732 | 30080 ft | 465 kts | 168° |
| 2026-04-12 09:20 | 37.71971 | 116.84060 | 30889 ft | 463 kts | 168° |
| 2026-04-12 09:20 | 37.68890 | 116.85225 | 31295 ft | 461 kts | 168° |
| 2026-04-12 09:20 | 37.62757 | 116.87542 | 32166 ft | 458 kts | 168° |
| 2026-04-12 09:21 | 37.59707 | 116.88691 | 32611 ft | 457 kts | 168° |
| 2026-04-12 09:21 | 37.56663 | 116.89836 | 32939 ft | 457 kts | 168° |
| 2026-04-12 09:21 | 37.53616 | 116.90979 | 33011 ft | 458 kts | 168° |
| 2026-04-12 09:22 | 37.47499 | 116.93265 | 32989 ft | 459 kts | 168° |
| 2026-04-12 09:22 | 37.41384 | 116.95554 | 33011 ft | 458 kts | 168° |
| 2026-04-12 09:23 | 37.35274 | 116.97844 | 33010 ft | 458 kts | 168° |
| 2026-04-12 09:23 | 37.29167 | 117.00140 | 33020 ft | 459 kts | 167° |
| 2026-04-12 09:24 | 37.23125 | 117.02784 | 33003 ft | 461 kts | 163° |
| 2026-04-12 09:24 | 37.17146 | 117.05721 | 33011 ft | 461 kts | 163° |
| 2026-04-12 09:25 | 37.11164 | 117.08633 | 33017 ft | 461 kts | 163° |
| 2026-04-12 09:25 | 37.05158 | 117.11444 | 33027 ft | 461 kts | 164° |
| 2026-04-12 09:26 | 37.00157 | 117.13749 | 33024 ft | 461 kts | 164° |
| 2026-04-12 09:26 | 36.94139 | 117.16526 | 33020 ft | 461 kts | 164° |
| 2026-04-12 09:27 | 36.87149 | 117.19764 | 33024 ft | 461 kts | 164° |
| 2026-04-12 09:27 | 36.81999 | 117.21381 | 33027 ft | 451 kts | 178° |
| 2026-04-12 09:28 | 36.74776 | 117.21544 | 33014 ft | 446 kts | 185° |
| 2026-04-12 09:28 | 36.69572 | 117.21505 | 33019 ft | 446 kts | 185° |
| 2026-04-12 09:29 | 36.63404 | 117.21465 | 33029 ft | 446 kts | 185° |
| 2026-04-12 09:29 | 36.57190 | 117.21423 | 33036 ft | 446 kts | 185° |
| 2026-04-12 09:30 | 36.50975 | 117.21377 | 33031 ft | 447 kts | 185° |
| 2026-04-12 09:30 | 36.44754 | 117.21335 | 33036 ft | 447 kts | 185° |
| 2026-04-12 09:31 | 36.38544 | 117.22491 | 33027 ft | 458 kts | 168° |
| 2026-04-12 09:31 | 36.32434 | 117.24787 | 33047 ft | 459 kts | 168° |
| 2026-04-12 09:32 | 36.26315 | 117.27068 | 33033 ft | 460 kts | 168° |
| 2026-04-12 09:32 | 36.20179 | 117.29346 | 33038 ft | 460 kts | 168° |
| 2026-04-12 09:33 | 36.14036 | 117.31613 | 33042 ft | 461 kts | 168° |
| 2026-04-12 09:33 | 36.07883 | 117.33886 | 33050 ft | 461 kts | 168° |
| 2026-04-12 09:34 | 36.01738 | 117.36163 | 33042 ft | 461 kts | 169° |
| 2026-04-12 09:34 | 35.95621 | 117.38425 | 33047 ft | 462 kts | 168° |